createdAt,value
2018-11-11T00:00:22.850Z,98.94
2018-11-11T00:02:53.089Z,99.03
2018-11-11T00:05:22.270Z,99.27
2018-11-11T00:07:51.174Z,99.09
2018-11-11T00:10:20.190Z,99.30
2018-11-11T00:12:49.754Z,99.49
2018-11-11T00:15:19.058Z,99.06
2018-11-11T00:17:48.911Z,99.37
2018-11-11T00:20:17.937Z,99.24
2018-11-11T00:22:46.998Z,99.24
2018-11-11T00:25:16.012Z,99.10
2018-11-11T00:27:45.071Z,98.93
2018-11-11T00:30:17.179Z,99.03
2018-11-11T00:32:46.339Z,99.27
2018-11-11T00:35:15.263Z,99.07
2018-11-11T00:37:44.342Z,99.29
2018-11-11T00:40:14.690Z,99.44
2018-11-11T00:42:43.974Z,99.10
2018-11-11T00:45:13.993Z,99.36
2018-11-11T00:47:43.430Z,98.90
2018-11-11T00:50:12.967Z,98.87
2018-11-11T00:52:41.949Z,99.02
2018-11-11T00:55:14.369Z,98.73
2018-11-11T00:57:44.075Z,99.20
2018-11-11T01:00:15.994Z,99.13
2018-11-11T01:02:45.832Z,99.15
2018-11-11T01:05:15.566Z,98.82
2018-11-11T01:07:47.520Z,99.41
2018-11-11T01:10:17.437Z,98.96
2018-11-11T01:12:46.936Z,99.46
2018-11-11T01:15:16.994Z,99.42
2018-11-11T01:17:46.481Z,98.73
2018-11-11T01:20:17.344Z,98.97
2018-11-11T01:22:47.275Z,99.06
2018-11-11T01:25:17.586Z,98.74
2018-11-11T01:27:47.096Z,98.94
2018-11-11T01:30:16.294Z,99.41
2018-11-11T01:32:45.368Z,98.99
2018-11-11T01:35:15.739Z,99.17
2018-11-11T01:37:45.414Z,99.56
2018-11-11T01:40:14.769Z,99.36
2018-11-11T01:42:43.988Z,99.54
2018-11-11T01:45:16.512Z,99.97
2018-11-11T01:47:46.350Z,99.97
2018-11-11T01:50:16.072Z,99.95
2018-11-11T01:52:45.398Z,100.00
2018-11-11T01:55:14.786Z,100.00
2018-11-11T01:57:43.793Z,100.00
2018-11-11T02:00:14.975Z,100.00
2018-11-11T02:02:44.578Z,99.76
2018-11-11T02:05:13.998Z,100.00
2018-11-11T02:07:43.851Z,99.84
2018-11-11T02:10:13.154Z,99.46
2018-11-11T02:12:43.413Z,99.83
2018-11-11T02:15:13.452Z,99.33
2018-11-11T02:17:42.997Z,99.64
2018-11-11T02:20:18.886Z,99.89
2018-11-11T02:22:48.801Z,99.59
2018-11-11T02:25:18.082Z,99.15
2018-11-11T02:27:47.403Z,98.99
2018-11-11T02:30:17.755Z,98.63
2018-11-11T02:32:46.754Z,98.76
2018-11-11T02:35:15.843Z,99.25
2018-11-11T02:37:45.019Z,98.94
2018-11-11T02:40:16.214Z,98.92
2018-11-11T02:42:45.571Z,99.08
2018-11-11T02:45:15.803Z,99.04
2018-11-11T02:47:44.915Z,98.87
2018-11-11T02:50:15.075Z,99.46
2018-11-11T02:52:44.435Z,99.44
2018-11-11T02:55:14.418Z,99.41
2018-11-11T02:57:44.042Z,99.44
2018-11-11T03:00:16.610Z,99.35
2018-11-11T03:02:46.979Z,99.33
2018-11-11T03:05:17.294Z,99.61
2018-11-11T03:07:46.180Z,99.33
2018-11-11T03:10:16.029Z,99.87
2018-11-11T03:12:45.751Z,99.33
2018-11-11T03:15:15.260Z,99.69
2018-11-11T03:17:44.250Z,99.07
2018-11-11T03:20:13.899Z,99.49
2018-11-11T03:22:42.829Z,99.58
2018-11-11T03:25:13.400Z,99.70
2018-11-11T03:27:42.749Z,98.99
2018-11-11T03:30:13.395Z,99.80
2018-11-11T03:32:42.338Z,99.64
2018-11-11T03:35:13.678Z,99.20
2018-11-11T03:37:43.122Z,99.13
2018-11-11T03:40:14.532Z,99.11
2018-11-11T03:42:44.264Z,99.08
2018-11-11T03:45:14.610Z,99.01
2018-11-11T03:47:44.635Z,99.37
2018-11-11T03:50:13.695Z,99.31
2018-11-11T03:52:43.018Z,99.01
2018-11-11T03:55:12.263Z,99.10
2018-11-11T03:57:41.518Z,99.05
2018-11-11T04:00:12.004Z,99.04
2018-11-11T04:02:40.995Z,98.55
2018-11-11T04:05:12.065Z,98.79
2018-11-11T04:07:41.974Z,98.69
2018-11-11T04:10:14.100Z,98.01
2018-11-11T04:12:43.374Z,98.60
2018-11-11T04:15:13.764Z,98.75
2018-11-11T04:17:42.639Z,98.15
2018-11-11T04:20:13.570Z,98.12
2018-11-11T04:22:42.859Z,98.43
2018-11-11T04:25:12.499Z,98.20
2018-11-11T04:27:41.470Z,98.56
2018-11-11T04:30:11.474Z,98.21
2018-11-11T04:32:40.862Z,98.32
2018-11-11T04:35:09.995Z,98.34
2018-11-11T04:37:39.000Z,97.68
2018-11-11T04:40:09.654Z,97.97
2018-11-11T04:42:39.055Z,98.86
2018-11-11T04:45:09.931Z,97.93
2018-11-11T04:47:39.305Z,97.99
2018-11-11T04:50:10.254Z,97.40
2018-11-11T04:52:39.537Z,97.77
2018-11-11T04:55:09.783Z,97.67
2018-11-11T04:57:39.483Z,98.32
2018-11-11T05:00:10.138Z,97.99
2018-11-11T05:02:39.159Z,98.03
2018-11-11T05:05:09.335Z,98.18
2018-11-11T05:07:38.733Z,98.30
2018-11-11T05:10:08.097Z,97.96
2018-11-11T05:12:37.283Z,97.17
2018-11-11T05:15:07.342Z,97.52
2018-11-11T05:17:36.427Z,97.10
2018-11-11T05:20:05.716Z,97.12
2018-11-11T05:22:34.742Z,97.21
2018-11-11T05:25:04.243Z,97.04
2018-11-11T05:27:34.076Z,96.58
2018-11-11T05:30:03.158Z,96.21
2018-11-11T05:32:32.393Z,96.25
2018-11-11T05:35:01.793Z,95.66
2018-11-11T05:37:31.099Z,95.81
2018-11-11T05:40:00.417Z,95.54
2018-11-11T05:42:29.341Z,94.81
2018-11-11T05:44:58.395Z,94.98
2018-11-11T05:47:27.451Z,94.87
2018-11-11T05:49:56.447Z,93.96
2018-11-11T05:52:25.712Z,93.98
2018-11-11T05:54:54.999Z,93.93
2018-11-11T05:57:24.058Z,93.80
2018-11-11T05:59:53.792Z,92.59
2018-11-11T06:02:22.669Z,92.50
2018-11-11T06:04:51.563Z,92.96
2018-11-11T06:07:20.486Z,92.46
2018-11-11T06:09:49.802Z,92.09
2018-11-11T06:12:18.804Z,92.02
2018-11-11T06:14:47.878Z,92.07
2018-11-11T06:17:16.978Z,92.39
2018-11-11T06:19:45.974Z,92.33
2018-11-11T06:22:15.361Z,91.99
2018-11-11T06:24:44.454Z,91.56
2018-11-11T06:27:13.626Z,91.23
2018-11-11T06:29:42.986Z,90.81
2018-11-11T06:32:12.414Z,91.04
2018-11-11T06:34:41.390Z,91.06
2018-11-11T06:37:10.875Z,90.45
2018-11-11T06:39:40.324Z,90.84
2018-11-11T06:42:09.403Z,90.29
2018-11-11T06:44:38.446Z,90.12
2018-11-11T06:47:07.653Z,90.34
2018-11-11T06:49:36.603Z,89.95
2018-11-11T06:52:05.622Z,89.96
2018-11-11T06:54:34.592Z,89.89
2018-11-11T06:57:03.707Z,89.76
2018-11-11T06:59:32.664Z,89.32
2018-11-11T07:02:02.033Z,89.74
2018-11-11T07:04:31.249Z,90.03
2018-11-11T07:07:00.409Z,89.38
2018-11-11T07:09:29.752Z,89.77
2018-11-11T07:11:59.032Z,89.46
2018-11-11T07:14:28.058Z,89.41
2018-11-11T07:16:56.922Z,89.47
2018-11-11T07:19:26.287Z,90.11
2018-11-11T07:21:55.471Z,90.04
2018-11-11T07:24:24.548Z,90.21
2018-11-11T07:26:53.485Z,90.36
2018-11-11T07:29:22.522Z,90.51
2018-11-11T07:31:52.590Z,90.26
2018-11-11T07:34:22.077Z,90.65
2018-11-11T07:36:51.163Z,91.02
2018-11-11T07:39:20.365Z,91.00
2018-11-11T07:41:49.345Z,91.34
2018-11-11T07:44:18.503Z,91.52
2018-11-11T07:46:47.417Z,91.19
2018-11-11T07:49:16.707Z,91.56
2018-11-11T07:51:45.657Z,91.80
2018-11-11T07:54:14.736Z,91.64
2018-11-11T07:56:43.693Z,91.27
2018-11-11T07:59:12.739Z,90.77
2018-11-11T08:01:41.744Z,90.63
2018-11-11T08:04:10.621Z,90.57
2018-11-11T08:06:39.812Z,90.36
2018-11-11T08:09:08.978Z,90.22
2018-11-11T08:12:11.312Z,91.00
2018-11-11T08:14:40.252Z,90.91
2018-11-11T08:17:09.258Z,90.46
2018-11-11T08:19:38.408Z,89.54
2018-11-11T08:22:07.763Z,89.57
2018-11-11T08:24:37.229Z,88.48
2018-11-11T08:27:06.423Z,87.90
2018-11-11T08:29:35.453Z,87.07
2018-11-11T08:32:04.429Z,86.22
2018-11-11T08:34:33.370Z,86.65
2018-11-11T08:37:02.328Z,85.29
2018-11-11T08:39:31.426Z,85.11
2018-11-11T08:42:01.283Z,85.03
2018-11-11T08:44:30.343Z,83.77
2018-11-11T08:46:59.321Z,83.43
2018-11-11T08:49:28.380Z,83.31
2018-11-11T08:51:58.149Z,83.36
2018-11-11T08:54:27.144Z,83.23
2018-11-11T08:56:56.129Z,83.03
2018-11-11T08:59:25.267Z,82.02
2018-11-11T09:01:54.274Z,80.45
2018-11-11T09:04:23.333Z,79.81
2018-11-11T09:06:52.266Z,78.45
2018-11-11T09:09:21.635Z,78.69
2018-11-11T09:11:50.798Z,77.66
2018-11-11T09:14:19.799Z,76.58
2018-11-11T09:16:49.139Z,73.86
2018-11-11T09:19:18.226Z,73.80
2018-11-11T09:21:47.356Z,72.29
2018-11-11T09:24:16.788Z,71.27
2018-11-11T09:26:46.235Z,71.51
2018-11-11T09:29:15.289Z,72.06
2018-11-11T09:31:44.260Z,72.48
2018-11-11T09:34:13.822Z,72.86
2018-11-11T09:36:43.560Z,72.08
2018-11-11T09:39:13.164Z,72.69
2018-11-11T09:41:42.109Z,73.35
2018-11-11T09:44:11.199Z,73.57
2018-11-11T09:46:40.281Z,74.39
2018-11-11T09:49:10.203Z,74.53
2018-11-11T09:51:39.177Z,75.26
2018-11-11T09:54:08.937Z,75.48
2018-11-11T09:56:37.850Z,75.69
2018-11-11T09:59:08.066Z,75.94
2018-11-11T10:01:37.432Z,76.00
2018-11-11T10:04:24.048Z,75.30
2018-11-11T10:06:58.222Z,75.53
2018-11-11T10:10:32.879Z,74.08
2018-11-11T10:13:36.900Z,73.84
2018-11-11T10:18:15.886Z,74.48
2018-11-11T10:20:50.109Z,74.83
2018-11-11T10:23:23.706Z,74.21
2018-11-11T10:26:02.144Z,74.53
2018-11-11T10:28:35.471Z,73.43
2018-11-11T10:31:08.727Z,72.79
2018-11-11T10:33:41.899Z,72.58
2018-11-11T10:38:19.929Z,72.22
2018-11-11T10:40:59.291Z,71.44
2018-11-11T10:43:32.122Z,71.63
2018-11-11T10:47:07.393Z,71.39
2018-11-11T10:49:44.234Z,71.67
2018-11-11T10:52:13.692Z,71.14
2018-11-11T10:54:43.195Z,71.20
2018-11-11T10:57:12.279Z,70.04
2018-11-11T10:59:42.177Z,69.85
2018-11-11T11:02:16.982Z,67.89
2018-11-11T11:04:51.173Z,69.28
2018-11-11T11:07:20.252Z,68.42
2018-11-11T11:09:50.150Z,68.94
2018-11-11T11:12:19.875Z,67.99
2018-11-11T11:14:49.337Z,68.90
2018-11-11T11:17:18.836Z,68.63
2018-11-11T11:19:48.076Z,69.21
2018-11-11T11:22:17.481Z,69.15
2018-11-11T11:24:47.346Z,69.81
2018-11-11T11:27:16.597Z,69.87
2018-11-11T11:29:45.979Z,69.21
2018-11-11T11:32:15.128Z,68.37
2018-11-11T11:34:44.623Z,68.71
2018-11-11T11:37:14.115Z,68.84
2018-11-11T11:39:43.521Z,68.55
2018-11-11T11:42:12.915Z,68.34
2018-11-11T11:44:41.954Z,69.25
2018-11-11T11:47:11.473Z,69.48
2018-11-11T11:49:41.032Z,67.11
2018-11-11T11:52:10.057Z,67.64
2018-11-11T11:54:39.345Z,67.32
2018-11-11T11:57:08.853Z,66.90
2018-11-11T11:59:38.247Z,66.91
2018-11-11T12:02:07.291Z,65.33
2018-11-11T12:04:37.465Z,64.67
2018-11-11T12:07:06.838Z,64.88
2018-11-11T12:09:36.158Z,64.70
2018-11-11T12:12:08.722Z,64.94
2018-11-11T12:14:38.018Z,65.38
2018-11-11T12:17:07.614Z,66.04
2018-11-11T12:19:37.466Z,65.21
2018-11-11T12:22:07.742Z,64.77
2018-11-11T12:24:36.985Z,64.43
2018-11-11T12:27:06.333Z,63.67
2018-11-11T12:29:35.374Z,63.77
2018-11-11T12:32:04.818Z,63.33
2018-11-11T12:34:33.847Z,63.50
2018-11-11T12:37:03.268Z,64.41
2018-11-11T12:39:32.761Z,64.34
2018-11-11T12:42:01.971Z,65.06
2018-11-11T12:44:30.957Z,65.15
2018-11-11T12:47:00.755Z,65.23
2018-11-11T12:49:29.722Z,65.73
2018-11-11T12:51:58.844Z,66.37
2018-11-11T12:54:28.556Z,66.25
2018-11-11T12:56:57.769Z,67.06
2018-11-11T12:59:27.109Z,65.82
2018-11-11T13:01:56.097Z,64.81
2018-11-11T13:04:25.880Z,64.33
2018-11-11T13:06:55.563Z,63.01
2018-11-11T13:09:24.863Z,61.76
2018-11-11T13:11:53.876Z,61.20
2018-11-11T13:14:23.359Z,61.64
2018-11-11T13:16:52.647Z,62.29
2018-11-11T13:19:22.254Z,62.63
2018-11-11T13:21:51.351Z,63.68
2018-11-11T13:24:23.974Z,63.74
2018-11-11T13:26:53.053Z,64.82
2018-11-11T13:29:22.188Z,65.60
2018-11-11T13:31:51.871Z,66.02
2018-11-11T13:34:21.726Z,66.26
2018-11-11T13:36:51.028Z,66.24
2018-11-11T13:39:20.364Z,66.99
2018-11-11T13:41:49.362Z,66.58
2018-11-11T13:44:18.811Z,67.22
2018-11-11T13:46:48.910Z,67.58
2018-11-11T13:49:17.871Z,68.03
2018-11-11T13:51:47.701Z,68.73
2018-11-11T13:54:17.055Z,68.53
2018-11-11T13:56:46.808Z,68.64
2018-11-11T13:59:16.607Z,69.18
2018-11-11T14:01:46.683Z,69.42
2018-11-11T14:04:15.846Z,69.75
2018-11-11T14:06:45.082Z,70.09
2018-11-11T14:09:15.179Z,70.28
2018-11-11T14:11:44.933Z,70.89
2018-11-11T14:14:14.444Z,71.27
2018-11-11T14:16:43.871Z,72.39
2018-11-11T14:19:13.162Z,73.13
2018-11-11T14:21:42.309Z,73.88
2018-11-11T14:24:11.292Z,74.25
2018-11-11T14:26:41.138Z,75.50
2018-11-11T14:29:10.379Z,76.31
2018-11-11T14:31:40.005Z,76.86
2018-11-11T14:34:08.945Z,78.19
2018-11-11T14:36:38.771Z,79.29
2018-11-11T14:39:12.314Z,79.31
2018-11-11T14:41:41.735Z,80.21
2018-11-11T14:44:12.473Z,80.00
2018-11-11T14:46:42.156Z,81.26
2018-11-11T14:49:11.258Z,81.40
2018-11-11T14:51:40.892Z,82.02
2018-11-11T14:54:10.363Z,82.31
2018-11-11T14:56:39.549Z,82.99
2018-11-11T14:59:09.330Z,83.99
2018-11-11T15:01:39.045Z,84.80
2018-11-11T15:04:08.649Z,85.64
2018-11-11T15:06:39.882Z,85.89
2018-11-11T15:09:11.069Z,87.39
2018-11-11T15:11:40.761Z,88.10
2018-11-11T15:14:10.211Z,89.96
2018-11-11T15:16:39.193Z,90.69
2018-11-11T15:19:12.635Z,90.56
2018-11-11T15:21:42.406Z,91.39
2018-11-11T15:24:11.748Z,92.03
2018-11-11T15:26:40.837Z,92.31
2018-11-11T15:29:09.823Z,92.40
2018-11-11T15:31:38.780Z,92.44
2018-11-11T15:34:08.817Z,92.62
2018-11-11T15:36:38.499Z,93.10
2018-11-11T15:39:10.012Z,92.90
2018-11-11T15:41:39.482Z,93.13
2018-11-11T15:44:10.412Z,94.33
2018-11-11T15:46:39.821Z,94.10
2018-11-11T15:49:09.445Z,93.95
2018-11-11T15:51:38.592Z,93.78
2018-11-11T15:54:07.664Z,94.50
2018-11-11T15:56:36.693Z,94.61
2018-11-11T15:59:05.946Z,95.12
2018-11-11T16:01:34.949Z,94.94
2018-11-11T16:04:04.857Z,94.48
2018-11-11T16:06:33.945Z,94.69
2018-11-11T16:09:02.817Z,94.61
2018-11-11T16:11:32.058Z,94.36
2018-11-11T16:14:01.326Z,94.24
2018-11-11T16:16:30.930Z,94.67
2018-11-11T16:19:01.081Z,95.02
2018-11-11T16:21:30.899Z,94.61
2018-11-11T16:24:00.025Z,94.69
2018-11-11T16:26:28.994Z,94.16
2018-11-11T16:28:58.254Z,94.59
2018-11-11T16:31:27.424Z,94.20
2018-11-11T16:33:56.735Z,94.04
2018-11-11T16:36:25.794Z,94.30
2018-11-11T16:38:55.005Z,94.26
2018-11-11T16:41:24.876Z,94.25
2018-11-11T16:43:54.348Z,94.18
2018-11-11T16:46:23.592Z,94.32
2018-11-11T16:48:52.725Z,94.29
2018-11-11T16:51:22.149Z,94.73
2018-11-11T16:53:51.722Z,94.82
2018-11-11T16:56:22.739Z,94.28
2018-11-11T16:58:51.918Z,94.43
2018-11-11T17:01:21.009Z,95.02
2018-11-11T17:03:50.888Z,94.84
2018-11-11T17:06:20.047Z,95.04
2018-11-11T17:08:49.495Z,95.15
2018-11-11T17:11:18.699Z,95.04
2018-11-11T17:13:48.073Z,94.87
2018-11-11T17:16:17.133Z,94.94
2018-11-11T17:18:46.269Z,95.17
2018-11-11T17:21:15.847Z,95.17
2018-11-11T17:23:45.855Z,94.59
2018-11-11T17:26:15.051Z,95.02
2018-11-11T17:28:44.319Z,94.96
2018-11-11T17:31:13.685Z,94.67
2018-11-11T17:33:42.669Z,94.31
2018-11-11T17:36:12.202Z,94.35
2018-11-11T17:38:41.322Z,94.45
2018-11-11T17:41:10.851Z,94.69
2018-11-11T17:43:39.991Z,94.72
2018-11-11T17:46:09.118Z,94.83
2018-11-11T17:48:38.410Z,94.90
2018-11-11T17:51:07.653Z,94.45
2018-11-11T17:53:36.683Z,94.87
2018-11-11T17:56:05.939Z,94.70
2018-11-11T17:58:35.218Z,94.01
2018-11-11T18:01:05.270Z,94.00
2018-11-11T18:03:34.228Z,94.15
2018-11-11T18:06:03.299Z,94.59
2018-11-11T18:08:32.284Z,94.33
2018-11-11T18:11:01.352Z,94.37
2018-11-11T18:13:30.289Z,94.44
2018-11-11T18:16:00.356Z,94.46
2018-11-11T18:18:29.597Z,94.59
2018-11-11T18:20:58.871Z,94.62
2018-11-11T18:23:28.199Z,94.80
2018-11-11T18:25:57.567Z,95.21
2018-11-11T18:28:27.781Z,94.74
2018-11-11T18:30:57.519Z,95.28
2018-11-11T18:33:26.783Z,95.50
2018-11-11T18:35:56.016Z,95.75
2018-11-11T18:38:25.211Z,95.74
2018-11-11T18:40:54.547Z,96.03
2018-11-11T18:43:23.918Z,95.77
2018-11-11T18:45:53.560Z,96.01
2018-11-11T18:48:22.905Z,95.71
2018-11-11T18:50:52.204Z,96.22
2018-11-11T18:53:21.909Z,95.95
2018-11-11T18:55:51.589Z,96.31
2018-11-11T18:58:21.040Z,96.34
2018-11-11T19:00:50.524Z,96.28
2018-11-11T19:03:20.237Z,96.40
2018-11-11T19:05:49.549Z,96.55
2018-11-11T19:08:18.897Z,96.51
2018-11-11T19:10:48.456Z,96.78
2018-11-11T19:13:17.720Z,96.63
2018-11-11T19:15:47.124Z,96.60
2018-11-11T19:18:16.543Z,96.66
2018-11-11T19:20:46.137Z,97.00
2018-11-11T19:23:15.469Z,96.67
2018-11-11T19:25:45.216Z,97.08
2018-11-11T19:28:14.603Z,96.85
2018-11-11T19:30:44.273Z,96.94
2018-11-11T19:33:14.214Z,96.93
2018-11-11T19:35:43.718Z,97.50
2018-11-11T19:38:13.152Z,97.26
2018-11-11T19:40:42.490Z,97.57
2018-11-11T19:43:12.095Z,97.36
2018-11-11T19:45:41.484Z,97.79
2018-11-11T19:48:10.852Z,97.47
2018-11-11T19:50:40.280Z,97.52
2018-11-11T19:53:09.606Z,98.04
2018-11-11T19:55:39.258Z,97.83
2018-11-11T19:58:08.652Z,97.37
2018-11-11T20:00:37.956Z,97.93
2018-11-11T20:03:07.669Z,97.52
2018-11-11T20:05:38.101Z,97.79
2018-11-11T20:08:07.613Z,97.55
2018-11-11T20:10:36.935Z,97.59
2018-11-11T20:13:06.452Z,97.57
2018-11-11T20:15:35.813Z,97.62
2018-11-11T20:18:05.321Z,97.79
2018-11-11T20:20:36.309Z,97.52
2018-11-11T20:23:05.965Z,97.68
2018-11-11T20:25:35.577Z,97.58
2018-11-11T20:28:06.404Z,97.14
2018-11-11T20:30:38.332Z,97.37
2018-11-11T20:33:08.266Z,97.44
2018-11-11T20:35:37.661Z,97.66
2018-11-11T20:38:07.025Z,97.40
2018-11-11T20:40:36.480Z,97.17
2018-11-11T20:43:05.762Z,97.04
2018-11-11T20:45:35.682Z,97.19
2018-11-11T20:48:05.148Z,96.98
2018-11-11T20:50:35.014Z,96.90
2018-11-11T20:53:05.682Z,96.37
2018-11-11T20:55:35.366Z,96.35
2018-11-11T20:58:05.754Z,95.41
2018-11-11T21:00:38.139Z,95.63
2018-11-11T21:03:08.403Z,95.91
2018-11-11T21:05:37.974Z,95.76
2018-11-11T21:08:07.214Z,95.61
2018-11-11T21:10:36.782Z,95.75
2018-11-11T21:13:06.067Z,95.19
2018-11-11T21:15:35.273Z,95.25
2018-11-11T21:18:04.554Z,94.77
2018-11-11T21:20:33.974Z,95.03
2018-11-11T21:23:03.204Z,94.91
2018-11-11T21:25:32.452Z,94.68
2018-11-11T21:28:01.773Z,94.55
2018-11-11T21:30:31.907Z,94.59
2018-11-11T21:33:00.996Z,94.07
2018-11-11T21:35:30.251Z,94.10
2018-11-11T21:38:00.047Z,94.25
2018-11-11T21:40:29.096Z,93.92
2018-11-11T21:42:58.014Z,93.96
2018-11-11T21:45:28.293Z,93.93
2018-11-11T21:47:57.226Z,94.62
2018-11-11T21:50:27.201Z,94.49
2018-11-11T21:53:31.218Z,94.14
2018-11-11T21:56:00.997Z,94.11
2018-11-11T21:58:31.200Z,94.31
2018-11-11T22:01:00.982Z,93.91
2018-11-11T22:03:30.425Z,94.26
2018-11-11T22:05:59.992Z,94.06
2018-11-11T22:08:29.622Z,93.94
2018-11-11T22:10:59.077Z,94.20
2018-11-11T22:13:28.310Z,93.61
2018-11-11T22:15:57.335Z,93.73
2018-11-11T22:18:26.752Z,93.66
2018-11-11T22:20:55.964Z,94.07
2018-11-11T22:23:25.027Z,93.55
2018-11-11T22:25:54.123Z,93.68
2018-11-11T22:28:23.332Z,93.79
2018-11-11T22:30:52.310Z,93.37
2018-11-11T22:33:21.794Z,93.48
2018-11-11T22:35:50.797Z,93.82
2018-11-11T22:38:22.183Z,93.86
2018-11-11T22:40:52.301Z,93.92
2018-11-11T22:43:21.410Z,93.77
2018-11-11T22:45:50.471Z,93.46
2018-11-11T22:48:19.901Z,93.25
2018-11-11T22:50:48.936Z,93.50
2018-11-11T22:53:18.097Z,94.01
2018-11-11T22:55:47.806Z,94.55
2018-11-11T22:58:17.973Z,94.71
2018-11-11T23:00:52.104Z,94.58
2018-11-11T23:03:21.115Z,94.35
2018-11-11T23:05:50.247Z,94.29
2018-11-11T23:08:19.383Z,94.39
2018-11-11T23:10:49.021Z,94.38
2018-11-11T23:13:18.222Z,94.46
2018-11-11T23:15:47.264Z,94.17
2018-11-11T23:18:16.436Z,93.94
2018-11-11T23:20:46.906Z,94.47
2018-11-11T23:23:16.290Z,94.42
2018-11-11T23:25:45.356Z,94.23
2018-11-11T23:28:14.519Z,94.49
2018-11-11T23:30:43.659Z,94.49
2018-11-11T23:33:12.874Z,93.93
2018-11-11T23:35:42.375Z,94.14
2018-11-11T23:38:11.941Z,94.02
2018-11-11T23:40:42.041Z,94.09
2018-11-11T23:43:11.021Z,94.11
2018-11-11T23:45:40.071Z,94.29
2018-11-11T23:48:09.159Z,93.82
2018-11-11T23:50:38.214Z,94.22
2018-11-11T23:53:07.179Z,93.52
2018-11-11T23:55:36.931Z,93.59
2018-11-11T23:58:06.170Z,94.34
